createdAt,value
2022-11-14T00:00:25.469Z,29.20
2022-11-14T00:02:54.694Z,28.58
2022-11-14T00:05:25.150Z,29.83
2022-11-14T00:07:53.716Z,30.17
2022-11-14T00:10:22.951Z,29.75
2022-11-14T00:12:51.765Z,31.60
2022-11-14T00:15:20.388Z,31.83
2022-11-14T00:17:48.903Z,32.63
2022-11-14T00:20:17.704Z,33.92
2022-11-14T00:22:49.355Z,32.72
2022-11-14T00:25:17.920Z,34.95
2022-11-14T00:27:46.449Z,34.83
2022-11-14T00:30:15.408Z,35.75
2022-11-14T00:32:43.724Z,36.55
2022-11-14T00:35:12.098Z,36.92
2022-11-14T00:37:41.918Z,36.28
2022-11-14T00:40:14.552Z,36.83
2022-11-14T00:42:43.140Z,37.78
2022-11-14T00:45:13.076Z,37.40
2022-11-14T00:47:42.378Z,38.45
2022-11-14T00:50:12.414Z,37.85
2022-11-14T00:52:41.376Z,41.03
2022-11-14T00:55:12.335Z,40.05
2022-11-14T00:57:40.723Z,39.17
2022-11-14T01:00:11.105Z,40.08
2022-11-14T01:02:39.738Z,39.10
2022-11-14T01:05:08.755Z,39.20
2022-11-14T01:07:37.741Z,42.83
2022-11-14T01:10:07.812Z,40.13
2022-11-14T01:12:37.954Z,41.42
2022-11-14T01:15:07.937Z,41.58
2022-11-14T01:17:36.560Z,42.60
2022-11-14T01:20:06.664Z,41.28
2022-11-14T01:22:35.645Z,43.03
2022-11-14T01:25:04.428Z,43.33
2022-11-14T01:27:33.485Z,43.53
2022-11-14T01:30:03.584Z,43.28
2022-11-14T01:32:32.093Z,42.88
2022-11-14T01:35:01.080Z,43.38
2022-11-14T01:37:29.526Z,42.63
2022-11-14T01:39:57.990Z,44.92
2022-11-14T01:42:27.686Z,43.90
2022-11-14T01:44:56.443Z,42.22
2022-11-14T01:47:31.796Z,44.13
2022-11-14T01:50:03.245Z,44.88
2022-11-14T01:52:36.171Z,43.65
2022-11-14T01:55:09.987Z,45.05
2022-11-14T01:57:45.439Z,45.20
2022-11-14T02:00:15.481Z,44.90
2022-11-14T02:02:45.878Z,47.53
2022-11-14T02:05:18.486Z,45.17
2022-11-14T02:07:47.143Z,45.10
2022-11-14T02:10:21.769Z,47.03
2022-11-14T02:12:51.872Z,46.92
2022-11-14T02:15:20.461Z,46.65
2022-11-14T02:17:50.913Z,45.17
2022-11-14T02:20:28.780Z,45.50
2022-11-14T02:22:57.384Z,46.05
2022-11-14T02:25:26.155Z,45.47
2022-11-14T02:27:54.933Z,45.58
2022-11-14T02:30:25.293Z,48.15
2022-11-14T02:33:10.365Z,47.15
2022-11-14T02:35:41.485Z,46.35
2022-11-14T02:38:10.183Z,47.88
2022-11-14T02:40:38.717Z,45.95
2022-11-14T02:43:07.263Z,47.25
2022-11-14T02:45:36.325Z,48.47
2022-11-14T02:48:05.703Z,48.78
2022-11-14T02:50:34.197Z,45.88
2022-11-14T02:53:04.022Z,48.10
2022-11-14T02:55:32.478Z,49.35
2022-11-14T02:58:01.147Z,46.25
2022-11-14T03:00:29.891Z,48.33
2022-11-14T03:02:58.627Z,50.35
2022-11-14T03:05:27.273Z,47.65
2022-11-14T03:07:56.638Z,49.53
2022-11-14T03:10:27.257Z,48.72
2022-11-14T03:12:56.718Z,49.33
2022-11-14T03:15:25.852Z,49.80
2022-11-14T03:17:55.974Z,49.40
2022-11-14T03:20:24.496Z,47.80
2022-11-14T03:22:53.254Z,49.25
2022-11-14T03:25:21.828Z,49.38
2022-11-14T03:27:53.936Z,50.53
2022-11-14T03:30:22.601Z,47.53
2022-11-14T03:32:50.977Z,49.17
2022-11-14T03:35:19.728Z,50.13
2022-11-14T03:37:48.287Z,49.72
2022-11-14T03:40:17.448Z,51.50
2022-11-14T03:42:46.018Z,50.83
2022-11-14T03:45:16.117Z,48.40
2022-11-14T03:47:44.506Z,50.22
2022-11-14T03:50:13.280Z,51.97
2022-11-14T03:52:41.811Z,51.20
2022-11-14T03:55:11.469Z,49.90
2022-11-14T03:57:39.955Z,51.92
2022-11-14T04:00:11.379Z,51.22
2022-11-14T04:02:41.555Z,51.72
2022-11-14T04:05:10.665Z,49.97
2022-11-14T04:07:41.286Z,50.67
2022-11-14T04:10:10.347Z,51.35
2022-11-14T04:12:38.955Z,50.75
2022-11-14T04:15:08.858Z,48.92
2022-11-14T04:17:39.979Z,50.92
2022-11-14T04:20:12.372Z,52.10
2022-11-14T04:22:41.200Z,49.70
2022-11-14T04:25:10.665Z,52.60
2022-11-14T04:27:39.133Z,51.20
2022-11-14T04:30:09.500Z,51.97
2022-11-14T04:32:38.218Z,51.20
2022-11-14T04:35:07.870Z,50.75
2022-11-14T04:37:39.422Z,51.63
2022-11-14T04:40:09.985Z,51.00
2022-11-14T04:42:38.356Z,49.78
2022-11-14T04:45:08.815Z,47.80
2022-11-14T04:47:37.683Z,49.30
2022-11-14T04:50:07.951Z,50.58
2022-11-14T04:52:38.501Z,49.08
2022-11-14T04:55:08.007Z,51.13
2022-11-14T04:57:36.506Z,50.95
2022-11-14T05:00:07.864Z,50.22
2022-11-14T05:02:36.518Z,50.17
2022-11-14T05:05:07.667Z,51.55
2022-11-14T05:07:37.775Z,50.38
2022-11-14T05:10:07.536Z,49.95
2022-11-14T05:12:36.250Z,51.40
2022-11-14T05:15:05.120Z,49.33
2022-11-14T05:17:33.696Z,49.13
2022-11-14T05:20:02.143Z,49.00
2022-11-14T05:22:30.494Z,52.63
2022-11-14T05:25:00.310Z,50.53
2022-11-14T05:27:29.659Z,47.67
2022-11-14T05:29:58.391Z,50.45
2022-11-14T05:32:26.985Z,50.00
2022-11-14T05:34:55.427Z,50.03
2022-11-14T05:37:24.156Z,51.40
2022-11-14T05:39:53.340Z,49.53
2022-11-14T05:42:23.292Z,48.05
2022-11-14T05:44:52.553Z,48.53
2022-11-14T05:47:21.063Z,47.92
2022-11-14T05:49:49.824Z,49.30
2022-11-14T05:52:18.212Z,48.50
2022-11-14T05:54:46.698Z,48.67
2022-11-14T05:57:17.361Z,48.33
2022-11-14T05:59:47.725Z,47.30
2022-11-14T06:02:16.706Z,49.38
2022-11-14T06:04:48.751Z,47.35
2022-11-14T06:07:20.163Z,49.60
2022-11-14T06:09:49.236Z,46.47
2022-11-14T06:12:17.822Z,47.88
2022-11-14T06:14:47.731Z,48.65
2022-11-14T06:17:16.232Z,47.22
2022-11-14T06:19:44.838Z,47.92
2022-11-14T06:22:13.347Z,47.72
2022-11-14T06:24:41.930Z,46.90
2022-11-14T06:27:10.275Z,47.17
2022-11-14T06:29:38.769Z,50.00
2022-11-14T06:32:08.802Z,45.90
2022-11-14T06:34:37.309Z,46.10
2022-11-14T06:37:08.713Z,48.20
2022-11-14T06:39:37.314Z,47.97
2022-11-14T06:42:06.414Z,46.85
2022-11-14T06:44:34.837Z,44.80
2022-11-14T06:47:03.289Z,44.78
2022-11-14T06:49:36.557Z,47.67
2022-11-14T06:52:07.903Z,46.97
2022-11-14T06:54:36.994Z,47.05
2022-11-14T06:57:09.159Z,45.22
2022-11-14T06:59:38.227Z,45.60
2022-11-14T07:02:06.890Z,44.63
2022-11-14T07:04:37.561Z,44.13
2022-11-14T07:07:06.039Z,45.92
2022-11-14T07:09:34.482Z,45.42
2022-11-14T07:12:03.082Z,49.33
2022-11-14T07:14:31.799Z,47.13
2022-11-14T07:17:00.784Z,45.47
2022-11-14T07:19:29.253Z,45.42
2022-11-14T07:21:59.144Z,46.17
2022-11-14T07:24:27.774Z,44.97
2022-11-14T07:27:00.076Z,46.53
2022-11-14T07:29:28.734Z,46.10
2022-11-14T07:31:57.112Z,45.42
2022-11-14T07:34:25.612Z,45.17
2022-11-14T07:36:56.592Z,46.20
2022-11-14T07:39:26.548Z,45.55
2022-11-14T07:41:54.838Z,45.90
2022-11-14T07:44:23.731Z,44.35
2022-11-14T07:46:52.479Z,48.30
2022-11-14T07:49:20.919Z,45.60
2022-11-14T07:51:49.199Z,45.20
2022-11-14T07:54:17.481Z,47.33
2022-11-14T07:56:47.455Z,43.30
2022-11-14T07:59:15.830Z,46.58
2022-11-14T08:01:44.099Z,45.03
2022-11-14T08:04:12.600Z,47.40
2022-11-14T08:06:41.047Z,45.83
2022-11-14T08:09:09.707Z,47.00
2022-11-14T08:11:50.865Z,46.42
2022-11-14T08:14:20.660Z,45.78
2022-11-14T08:16:48.961Z,45.60
2022-11-14T08:19:17.648Z,44.53
2022-11-14T08:21:46.232Z,45.05
2022-11-14T08:24:14.559Z,44.38
2022-11-14T08:26:42.974Z,44.00
2022-11-14T08:29:11.281Z,44.15
2022-11-14T08:31:41.559Z,41.97
2022-11-14T08:34:10.061Z,41.38
2022-11-14T08:36:38.465Z,40.95
2022-11-14T08:39:07.166Z,39.75
2022-11-14T08:41:36.173Z,39.92
2022-11-14T08:44:04.557Z,38.63
2022-11-14T08:46:32.937Z,37.17
2022-11-14T08:49:02.687Z,35.40
2022-11-14T08:51:30.967Z,34.67
2022-11-14T08:53:59.370Z,33.00
2022-11-14T08:56:28.178Z,33.13
2022-11-14T08:58:56.530Z,30.85
2022-11-14T09:01:25.185Z,29.40
2022-11-14T09:03:59.624Z,28.42
2022-11-14T09:06:30.264Z,27.92
2022-11-14T09:08:59.896Z,27.27
2022-11-14T09:11:34.283Z,27.92
2022-11-14T09:14:05.822Z,27.63
2022-11-14T09:16:41.883Z,27.30
2022-11-14T09:19:13.648Z,24.92
2022-11-14T09:21:44.036Z,25.88
2022-11-14T09:24:12.872Z,27.35
2022-11-14T09:26:41.422Z,25.70
2022-11-14T09:29:10.988Z,26.08
2022-11-14T09:31:39.759Z,26.48
2022-11-14T09:34:08.353Z,25.80
2022-11-14T09:36:37.766Z,23.70
2022-11-14T09:39:08.547Z,26.67
2022-11-14T09:41:57.625Z,25.52
2022-11-14T09:45:03.140Z,24.90
2022-11-14T09:47:38.558Z,23.42
2022-11-14T09:52:47.682Z,22.70
2022-11-14T09:55:21.337Z,22.55
2022-11-14T09:57:50.404Z,22.17
2022-11-14T10:00:22.236Z,21.38
2022-11-14T10:03:05.416Z,22.23
2022-11-14T10:06:04.333Z,20.67
2022-11-14T10:08:50.445Z,20.33
2022-11-14T10:11:25.313Z,20.30
2022-11-14T10:14:42.643Z,20.40
2022-11-14T10:17:28.018Z,19.63
2022-11-14T10:20:10.367Z,19.17
2022-11-14T10:23:02.800Z,18.40
2022-11-14T10:25:47.293Z,19.42
2022-11-14T10:28:43.444Z,19.58
2022-11-14T10:34:00.500Z,19.33
2022-11-14T10:36:50.594Z,19.63
2022-11-14T10:39:26.006Z,19.45
2022-11-14T10:44:45.051Z,18.95
2022-11-14T10:47:19.607Z,18.85
2022-11-14T10:49:53.451Z,17.20
2022-11-14T10:52:29.301Z,17.17
2022-11-14T10:55:06.311Z,16.40
2022-11-14T10:57:35.353Z,16.05
2022-11-14T11:00:13.460Z,15.73
2022-11-14T11:02:53.272Z,15.18
2022-11-14T11:05:25.866Z,14.48
2022-11-14T11:08:36.123Z,15.70
2022-11-14T11:11:27.528Z,15.80
2022-11-14T11:13:59.577Z,15.05
2022-11-14T11:16:31.791Z,14.77
2022-11-14T11:19:23.629Z,14.95
2022-11-14T11:21:57.774Z,15.25
2022-11-14T11:24:37.862Z,15.15
2022-11-14T11:27:24.437Z,16.20
2022-11-14T11:30:10.348Z,16.42
2022-11-14T11:32:40.565Z,16.00
2022-11-14T11:35:16.930Z,15.52
2022-11-14T11:37:54.780Z,14.63
2022-11-14T11:40:29.785Z,15.73
2022-11-14T11:45:56.124Z,15.40
2022-11-14T11:48:39.032Z,15.85
2022-11-14T11:51:14.945Z,15.23
2022-11-14T11:53:48.713Z,14.70
2022-11-14T11:56:23.672Z,15.38
2022-11-14T11:58:56.454Z,15.25
2022-11-14T12:01:25.837Z,15.07
2022-11-14T12:03:56.119Z,15.00
2022-11-14T12:06:27.477Z,14.75
2022-11-14T12:09:19.153Z,15.18
2022-11-14T12:11:55.427Z,14.10
2022-11-14T12:14:59.552Z,16.20
2022-11-14T12:18:12.634Z,15.88
2022-11-14T12:21:40.169Z,14.90
2022-11-14T12:27:25.644Z,15.05
2022-11-14T12:30:14.182Z,15.80
2022-11-14T12:32:52.721Z,15.07
2022-11-14T12:35:26.769Z,15.68
2022-11-14T12:37:59.280Z,16.13
2022-11-14T12:40:32.538Z,16.73
2022-11-14T12:43:04.627Z,16.27
2022-11-14T12:46:04.086Z,16.60
2022-11-14T12:48:41.150Z,16.35
2022-11-14T12:51:54.844Z,16.92
2022-11-14T12:54:46.693Z,17.08
2022-11-14T12:57:47.183Z,17.05
2022-11-14T13:00:19.645Z,17.73
2022-11-14T13:03:21.010Z,17.25
2022-11-14T13:06:10.696Z,17.98
2022-11-14T13:09:12.412Z,18.48
2022-11-14T13:12:05.484Z,17.30
2022-11-14T13:15:08.270Z,18.08
2022-11-14T13:17:56.883Z,17.30
2022-11-14T13:20:50.008Z,18.92
2022-11-14T13:23:58.823Z,18.15
2022-11-14T13:27:20.809Z,17.42
2022-11-14T13:29:50.808Z,18.55
2022-11-14T13:33:05.693Z,21.33
2022-11-14T13:36:05.007Z,22.27
2022-11-14T13:39:25.669Z,23.25
2022-11-14T13:42:16.599Z,24.25
2022-11-14T13:45:19.163Z,24.40
2022-11-14T13:48:34.559Z,25.42
2022-11-14T13:51:41.176Z,25.30
2022-11-14T13:54:01.135Z,25.55
2022-11-14T13:56:39.565Z,24.98
2022-11-14T13:59:53.171Z,24.42
2022-11-14T14:03:06.418Z,24.10
2022-11-14T14:06:01.157Z,24.98
2022-11-14T14:09:09.193Z,25.00
2022-11-14T14:11:56.342Z,23.80
2022-11-14T14:14:50.179Z,25.45
2022-11-14T14:17:28.186Z,24.90
2022-11-14T14:20:11.829Z,25.98
2022-11-14T14:22:53.230Z,25.30
2022-11-14T14:25:34.811Z,25.10
2022-11-14T14:28:15.414Z,25.00
2022-11-14T14:31:04.066Z,25.10
2022-11-14T14:33:42.970Z,25.13
2022-11-14T14:36:25.821Z,25.02
2022-11-14T14:39:22.211Z,25.30
2022-11-14T14:41:52.819Z,26.08
2022-11-14T14:44:27.467Z,25.65
2022-11-14T14:46:58.550Z,26.42
2022-11-14T14:49:31.602Z,25.17
2022-11-14T14:52:03.242Z,24.42
2022-11-14T14:54:37.654Z,24.80
2022-11-14T14:57:08.832Z,26.17
2022-11-14T14:59:42.221Z,24.92
2022-11-14T15:02:18.686Z,25.58
2022-11-14T15:04:48.403Z,25.83
2022-11-14T15:07:24.000Z,25.85
2022-11-14T15:10:01.469Z,26.98
2022-11-14T15:12:43.992Z,27.65
2022-11-14T15:15:20.798Z,26.40
2022-11-14T15:17:54.430Z,25.92
2022-11-14T15:20:32.175Z,27.00
2022-11-14T15:23:20.422Z,26.38
2022-11-14T15:26:03.157Z,25.67
2022-11-14T15:28:36.473Z,27.23
2022-11-14T15:31:06.597Z,27.25
2022-11-14T15:33:41.460Z,26.75
2022-11-14T15:36:13.503Z,26.00
2022-11-14T15:39:02.278Z,25.30
2022-11-14T15:41:32.448Z,25.65
2022-11-14T15:44:04.540Z,26.48
2022-11-14T15:46:47.279Z,26.85
2022-11-14T15:49:25.021Z,25.92
2022-11-14T15:51:57.964Z,27.00
2022-11-14T15:54:38.077Z,28.60
2022-11-14T15:57:15.103Z,27.45
2022-11-14T15:59:44.158Z,26.77
2022-11-14T16:02:17.676Z,27.33
2022-11-14T16:04:53.308Z,26.23
2022-11-14T16:07:22.372Z,27.98
2022-11-14T16:09:52.872Z,26.40
2022-11-14T16:12:21.565Z,26.65
2022-11-14T16:14:49.997Z,28.17
2022-11-14T16:17:19.441Z,28.17
2022-11-14T16:19:49.703Z,27.42
2022-11-14T16:22:23.307Z,29.05
2022-11-14T16:25:22.127Z,29.08
2022-11-14T16:28:05.869Z,29.10
2022-11-14T16:31:02.393Z,28.35
2022-11-14T16:33:30.713Z,29.33
2022-11-14T16:36:01.335Z,29.98
2022-11-14T16:38:31.126Z,29.98
2022-11-14T16:41:00.599Z,30.48
2022-11-14T16:43:29.656Z,30.92
2022-11-14T16:45:58.672Z,31.85
2022-11-14T16:48:28.779Z,31.95
2022-11-14T16:51:14.489Z,33.80
2022-11-14T16:53:50.650Z,32.10
2022-11-14T16:56:22.342Z,33.53
2022-11-14T16:58:56.302Z,33.47
2022-11-14T17:01:26.320Z,34.25
2022-11-14T17:03:54.806Z,33.95
2022-11-14T17:06:26.995Z,33.60
2022-11-14T17:09:02.350Z,34.05
2022-11-14T17:11:31.250Z,35.58
2022-11-14T17:13:59.976Z,35.75
2022-11-14T17:16:28.654Z,35.05
2022-11-14T17:18:58.249Z,36.45
2022-11-14T17:21:29.711Z,33.90
2022-11-14T17:24:01.646Z,35.70
2022-11-14T17:26:30.883Z,35.17
2022-11-14T17:28:59.466Z,34.65
2022-11-14T17:31:28.079Z,35.85
2022-11-14T17:33:59.473Z,34.45
2022-11-14T17:36:31.458Z,36.90
2022-11-14T17:39:04.261Z,34.95
2022-11-14T17:41:35.284Z,36.53
2022-11-14T17:44:04.505Z,35.00
2022-11-14T17:46:32.893Z,34.70
2022-11-14T17:49:02.501Z,36.70
2022-11-14T17:51:31.302Z,36.35
2022-11-14T17:54:01.378Z,37.13
2022-11-14T17:56:30.565Z,35.63
2022-11-14T17:59:01.472Z,36.28
2022-11-14T18:01:31.725Z,37.03
2022-11-14T18:04:05.490Z,34.72
2022-11-14T18:06:35.206Z,35.63
2022-11-14T18:09:08.107Z,36.08
2022-11-14T18:11:39.641Z,38.75
2022-11-14T18:14:10.463Z,35.88
2022-11-14T18:17:05.420Z,34.72
2022-11-14T18:19:27.380Z,33.88
2022-11-14T18:21:55.768Z,35.80
2022-11-14T18:24:27.951Z,34.63
2022-11-14T18:26:59.322Z,33.03
2022-11-14T18:29:30.813Z,33.60
2022-11-14T18:32:05.264Z,33.72
2022-11-14T18:34:37.199Z,34.28
2022-11-14T18:37:06.286Z,31.17
2022-11-14T18:39:36.887Z,32.67
2022-11-14T18:42:06.133Z,30.35
2022-11-14T18:44:34.898Z,32.03
2022-11-14T18:47:03.855Z,30.65
2022-11-14T18:49:37.071Z,29.73
2022-11-14T18:52:12.732Z,28.63
2022-11-14T18:54:46.865Z,29.23
2022-11-14T18:57:15.277Z,28.27
2022-11-14T18:59:43.644Z,27.88
2022-11-14T19:02:12.236Z,27.55
2022-11-14T19:04:40.967Z,28.08
2022-11-14T19:07:10.201Z,27.58
2022-11-14T19:09:39.399Z,29.02
2022-11-14T19:12:21.967Z,29.00
2022-11-14T19:14:53.305Z,28.30
2022-11-14T19:17:22.809Z,28.30
2022-11-14T19:19:53.903Z,27.98
2022-11-14T19:22:24.473Z,28.27
2022-11-14T19:24:52.940Z,28.38
2022-11-14T19:27:22.796Z,27.25
2022-11-14T19:29:51.669Z,24.67
2022-11-14T19:32:21.687Z,26.00
2022-11-14T19:34:53.377Z,25.25
2022-11-14T19:37:21.810Z,25.58
2022-11-14T19:39:52.525Z,24.35
2022-11-14T19:42:23.630Z,24.20
2022-11-14T19:44:53.607Z,24.88
2022-11-14T19:47:22.727Z,24.45
2022-11-14T19:49:51.402Z,23.45
2022-11-14T19:52:20.778Z,23.63
2022-11-14T19:54:49.281Z,23.83
2022-11-14T19:57:18.202Z,23.98
2022-11-14T19:59:48.769Z,23.75
2022-11-14T20:02:17.060Z,23.95
2022-11-14T20:04:48.006Z,24.50
2022-11-14T20:07:17.258Z,22.40
2022-11-14T20:09:45.691Z,22.98
2022-11-14T20:12:14.247Z,23.35
2022-11-14T20:14:42.950Z,22.58
2022-11-14T20:17:13.876Z,23.55
2022-11-14T20:19:42.796Z,24.92
2022-11-14T20:22:13.203Z,24.02
2022-11-14T20:24:41.894Z,22.95
2022-11-14T20:27:11.901Z,22.23
2022-11-14T20:29:40.242Z,22.48
2022-11-14T20:32:13.052Z,21.95
2022-11-14T20:34:45.557Z,22.48
2022-11-14T20:37:13.981Z,23.00
2022-11-14T20:39:42.536Z,21.80
2022-11-14T20:42:11.645Z,23.55
2022-11-14T20:44:41.004Z,22.98
2022-11-14T20:47:11.216Z,23.20
2022-11-14T20:49:40.653Z,23.90
2022-11-14T20:52:11.425Z,22.40
2022-11-14T20:54:40.155Z,24.52
2022-11-14T20:57:09.596Z,24.52
2022-11-14T20:59:38.250Z,24.67
2022-11-14T21:02:06.869Z,26.58
2022-11-14T21:04:35.333Z,23.80
2022-11-14T21:07:03.752Z,24.30
2022-11-14T21:09:34.127Z,23.75
2022-11-14T21:12:02.850Z,23.20
2022-11-14T21:14:31.192Z,23.02
2022-11-14T21:16:59.675Z,23.77
2022-11-14T21:19:30.499Z,22.58
2022-11-14T21:21:59.025Z,24.05
2022-11-14T21:24:27.394Z,22.60
2022-11-14T21:26:57.477Z,22.65
2022-11-14T21:29:27.317Z,21.88
2022-11-14T21:31:55.772Z,24.05
2022-11-14T21:34:24.368Z,24.17
2022-11-14T21:36:52.784Z,23.88
2022-11-14T21:39:21.195Z,25.17
2022-11-14T21:41:49.517Z,25.67
2022-11-14T21:44:21.433Z,25.40
2022-11-14T21:46:49.941Z,26.10
2022-11-14T21:49:18.636Z,25.45
2022-11-14T21:51:48.312Z,25.50
2022-11-14T21:54:16.940Z,26.40
2022-11-14T21:56:45.303Z,24.83
2022-11-14T21:59:21.342Z,26.67
2022-11-14T22:02:09.888Z,26.27
2022-11-14T22:04:38.810Z,25.55
2022-11-14T22:07:09.309Z,28.00
2022-11-14T22:09:42.680Z,29.60
2022-11-14T22:12:13.717Z,30.42
2022-11-14T22:14:42.056Z,30.70
2022-11-14T22:17:11.762Z,29.77
2022-11-14T22:19:40.100Z,28.27
2022-11-14T22:22:09.065Z,30.80
2022-11-14T22:24:37.324Z,31.38
2022-11-14T22:27:05.681Z,30.05
2022-11-14T22:29:34.058Z,30.60
2022-11-14T22:32:02.415Z,30.55
2022-11-14T22:34:32.285Z,30.83
2022-11-14T22:37:00.847Z,30.40
2022-11-14T22:39:29.261Z,30.42
2022-11-14T22:41:57.672Z,30.98
2022-11-14T22:44:26.422Z,29.65
2022-11-14T22:46:54.918Z,31.27
2022-11-14T22:49:23.366Z,32.60
2022-11-14T22:51:53.215Z,31.65
2022-11-14T22:54:21.665Z,31.65
2022-11-14T22:56:50.001Z,31.77
2022-11-14T22:59:18.622Z,30.48
2022-11-14T23:01:47.016Z,31.13
2022-11-14T23:04:15.516Z,31.77
2022-11-14T23:06:44.257Z,30.23
2022-11-14T23:09:14.050Z,31.38
2022-11-14T23:11:42.636Z,29.15
2022-11-14T23:14:14.307Z,29.77
2022-11-14T23:16:42.969Z,31.63
2022-11-14T23:19:11.513Z,30.42
2022-11-14T23:21:39.965Z,30.05
2022-11-14T23:24:14.585Z,32.17
2022-11-14T23:26:43.717Z,29.77
2022-11-14T23:29:15.249Z,30.50
2022-11-14T23:31:43.935Z,30.45
2022-11-14T23:34:12.673Z,30.63
2022-11-14T23:36:41.202Z,30.92
2022-11-14T23:39:10.595Z,30.40
2022-11-14T23:41:40.624Z,32.90
2022-11-14T23:44:09.173Z,31.92
2022-11-14T23:46:37.656Z,33.05
2022-11-14T23:49:05.857Z,32.08
2022-11-14T23:51:35.565Z,33.55
2022-11-14T23:54:04.432Z,32.42
2022-11-14T23:56:32.841Z,35.65
2022-11-14T23:59:02.838Z,32.95
